createdAt,value
2022-10-16T00:01:44.063Z,65.60
2022-10-16T00:04:12.745Z,65.80
2022-10-16T00:06:41.478Z,65.80
2022-10-16T00:09:10.055Z,66.00
2022-10-16T00:11:41.231Z,66.10
2022-10-16T00:14:12.358Z,66.10
2022-10-16T00:16:41.417Z,66.20
2022-10-16T00:19:12.761Z,66.00
2022-10-16T00:21:41.437Z,66.20
2022-10-16T00:24:11.368Z,66.40
2022-10-16T00:26:40.994Z,66.30
2022-10-16T00:29:09.916Z,66.50
2022-10-16T00:31:38.693Z,66.70
2022-10-16T00:34:07.256Z,66.80
2022-10-16T00:36:37.047Z,66.80
2022-10-16T00:39:05.907Z,66.90
2022-10-16T00:41:35.063Z,66.90
2022-10-16T00:44:06.440Z,67.00
2022-10-16T00:46:39.807Z,67.10
2022-10-16T00:49:10.657Z,67.30
2022-10-16T00:51:43.351Z,67.40
2022-10-16T00:54:15.506Z,67.60
2022-10-16T00:56:45.387Z,67.50
2022-10-16T00:59:20.292Z,67.70
2022-10-16T01:01:48.679Z,67.90
2022-10-16T01:04:17.449Z,67.90
2022-10-16T01:06:57.419Z,68.00
2022-10-16T01:09:31.900Z,68.10
2022-10-16T01:12:07.699Z,68.20
2022-10-16T01:14:47.737Z,68.30
2022-10-16T01:17:20.627Z,68.30
2022-10-16T01:20:16.248Z,68.40
2022-10-16T01:23:03.841Z,68.40
2022-10-16T01:25:47.538Z,68.40
2022-10-16T01:28:18.108Z,68.60
2022-10-16T01:30:48.661Z,68.60
2022-10-16T01:33:21.436Z,68.80
2022-10-16T01:35:55.496Z,69.10
2022-10-16T01:38:31.679Z,69.60
2022-10-16T01:41:03.514Z,69.80
2022-10-16T01:43:38.192Z,70.00
2022-10-16T01:46:09.098Z,70.10
2022-10-16T01:48:38.778Z,70.20
2022-10-16T01:51:10.757Z,70.40
2022-10-16T01:53:40.078Z,70.40
2022-10-16T01:56:13.367Z,70.50
2022-10-16T01:58:49.489Z,70.70
2022-10-16T02:01:20.529Z,71.00
2022-10-16T02:03:52.471Z,71.10
2022-10-16T02:06:20.981Z,71.40
2022-10-16T02:08:49.577Z,71.50
2022-10-16T02:11:18.067Z,71.70
2022-10-16T02:13:53.190Z,71.70
2022-10-16T02:16:21.673Z,71.80
2022-10-16T02:18:50.800Z,71.80
2022-10-16T02:21:25.661Z,71.80
2022-10-16T02:24:01.997Z,71.70
2022-10-16T02:26:33.808Z,71.80
2022-10-16T02:29:08.878Z,71.80
2022-10-16T02:31:43.323Z,72.00
2022-10-16T02:34:14.680Z,72.10
2022-10-16T02:36:44.127Z,72.30
2022-10-16T02:39:13.447Z,72.80
2022-10-16T02:41:42.136Z,73.20
2022-10-16T02:44:12.060Z,73.70
2022-10-16T02:46:40.439Z,74.00
2022-10-16T02:49:09.016Z,74.30
2022-10-16T02:51:37.856Z,74.80
2022-10-16T02:54:06.776Z,75.10
2022-10-16T02:56:35.163Z,75.40
2022-10-16T02:59:03.721Z,75.70
2022-10-16T03:01:33.575Z,76.00
2022-10-16T03:04:02.096Z,76.40
2022-10-16T03:06:30.486Z,76.50
2022-10-16T03:08:59.066Z,76.80
2022-10-16T03:11:27.467Z,77.30
2022-10-16T03:13:56.006Z,77.70
2022-10-16T03:16:24.425Z,77.90
2022-10-16T03:18:54.261Z,77.70
2022-10-16T03:21:22.670Z,77.70
2022-10-16T03:23:51.300Z,77.70
2022-10-16T03:26:19.671Z,77.80
2022-10-16T03:28:48.232Z,77.70
2022-10-16T03:31:16.689Z,77.60
2022-10-16T03:33:45.118Z,77.50
2022-10-16T03:36:14.798Z,77.40
2022-10-16T03:38:43.201Z,78.00
2022-10-16T03:41:11.596Z,77.30
2022-10-16T03:43:40.125Z,77.40
2022-10-16T03:46:08.695Z,77.50
2022-10-16T03:48:37.098Z,77.60
2022-10-16T03:51:05.714Z,77.80
2022-10-16T03:53:35.380Z,78.00
2022-10-16T03:56:03.938Z,78.20
2022-10-16T03:58:32.307Z,78.40
2022-10-16T04:01:00.839Z,78.60
2022-10-16T04:03:29.257Z,78.80
2022-10-16T04:05:58.015Z,79.10
2022-10-16T04:08:26.490Z,79.40
2022-10-16T04:10:56.307Z,79.80
2022-10-16T04:13:24.865Z,80.30
2022-10-16T04:15:53.347Z,80.70
2022-10-16T04:18:21.876Z,81.30
2022-10-16T04:20:50.257Z,82.00
2022-10-16T04:23:18.679Z,82.60
2022-10-16T04:25:47.066Z,83.00
2022-10-16T04:28:16.817Z,83.40
2022-10-16T04:30:45.260Z,83.90
2022-10-16T04:33:13.927Z,84.30
2022-10-16T04:35:42.308Z,84.70
2022-10-16T04:38:10.756Z,84.90
2022-10-16T04:40:39.138Z,85.80
2022-10-16T04:43:08.438Z,85.30
2022-10-16T04:45:38.180Z,85.30
2022-10-16T04:48:06.747Z,85.50
2022-10-16T04:50:35.186Z,85.30
2022-10-16T04:53:07.930Z,85.30
2022-10-16T04:55:36.375Z,85.30
2022-10-16T04:58:05.026Z,85.30
2022-10-16T05:00:33.557Z,85.30
2022-10-16T05:03:07.058Z,85.30
2022-10-16T05:05:35.997Z,85.50
2022-10-16T05:08:05.389Z,85.30
2022-10-16T05:10:34.057Z,85.60
2022-10-16T05:13:02.559Z,85.50
2022-10-16T05:15:31.028Z,85.30
2022-10-16T05:18:01.892Z,85.40
2022-10-16T05:20:30.517Z,85.60
2022-10-16T05:22:59.185Z,86.40
2022-10-16T05:25:28.451Z,87.10
2022-10-16T05:27:56.885Z,88.70
2022-10-16T05:30:25.448Z,90.30
2022-10-16T05:32:53.958Z,91.20
2022-10-16T05:35:24.368Z,92.30
2022-10-16T05:37:52.865Z,93.40
2022-10-16T05:40:21.280Z,93.90
2022-10-16T05:42:49.687Z,93.60
2022-10-16T05:45:18.318Z,93.40
2022-10-16T05:47:46.758Z,93.10
2022-10-16T05:50:16.828Z,92.20
2022-10-16T05:52:46.658Z,91.40
2022-10-16T05:55:15.217Z,87.30
2022-10-16T05:57:43.649Z,81.50
2022-10-16T06:00:13.027Z,76.60
2022-10-16T06:02:41.537Z,73.50
2022-10-16T06:05:10.216Z,72.30
2022-10-16T06:07:38.730Z,73.30
2022-10-16T06:10:09.992Z,73.40
2022-10-16T06:12:38.428Z,72.70
2022-10-16T06:15:07.607Z,71.70
2022-10-16T06:17:36.027Z,71.00
2022-10-16T06:20:04.550Z,71.70
2022-10-16T06:22:32.965Z,70.90
2022-10-16T06:25:01.644Z,69.40
2022-10-16T06:27:31.356Z,68.00
2022-10-16T06:29:59.956Z,68.40
2022-10-16T06:32:29.907Z,70.80
2022-10-16T06:34:58.437Z,72.10
2022-10-16T06:37:27.378Z,72.30
2022-10-16T06:39:56.294Z,71.30
2022-10-16T06:42:25.046Z,70.10
2022-10-16T06:44:55.114Z,69.70
2022-10-16T06:47:23.753Z,67.90
2022-10-16T06:49:54.354Z,64.00
2022-10-16T06:52:23.098Z,61.00
2022-10-16T06:54:52.388Z,58.80
2022-10-16T06:57:20.808Z,57.00
2022-10-16T06:59:53.254Z,54.10
2022-10-16T07:02:25.420Z,52.60
2022-10-16T07:04:54.377Z,51.40
2022-10-16T07:07:25.658Z,51.10
2022-10-16T07:09:54.202Z,51.50
2022-10-16T07:12:22.708Z,51.90
2022-10-16T07:14:53.179Z,51.80
2022-10-16T07:17:21.617Z,51.20
2022-10-16T07:19:53.845Z,51.00
2022-10-16T07:22:22.457Z,51.00
2022-10-16T07:24:52.848Z,50.80
2022-10-16T07:27:23.285Z,50.40
2022-10-16T07:29:51.859Z,48.70
2022-10-16T07:32:20.282Z,47.40
2022-10-16T07:34:50.137Z,46.10
2022-10-16T07:37:18.569Z,45.20
2022-10-16T07:39:47.158Z,44.70
2022-10-16T07:42:15.607Z,44.50
2022-10-16T07:44:44.137Z,45.10
2022-10-16T07:47:12.591Z,45.60
2022-10-16T07:49:41.187Z,45.80
2022-10-16T07:52:11.057Z,46.40
2022-10-16T07:54:39.603Z,46.80
2022-10-16T07:57:08.007Z,47.40
2022-10-16T07:59:36.972Z,47.80
2022-10-16T08:02:05.425Z,48.00
2022-10-16T08:04:34.046Z,48.30
2022-10-16T08:07:02.517Z,48.30
2022-10-16T08:09:32.436Z,48.40
2022-10-16T08:12:02.435Z,48.70
2022-10-16T08:14:31.258Z,49.10
2022-10-16T08:16:59.721Z,49.50
2022-10-16T08:19:28.330Z,50.30
2022-10-16T08:21:56.828Z,50.70
2022-10-16T08:24:25.326Z,50.90
2022-10-16T08:26:57.307Z,51.10
2022-10-16T08:29:25.848Z,50.70
2022-10-16T08:31:54.326Z,50.60
2022-10-16T08:34:22.889Z,50.40
2022-10-16T08:36:51.357Z,49.20
2022-10-16T08:39:19.916Z,48.70
2022-10-16T08:42:28.464Z,46.60
2022-10-16T08:45:11.188Z,46.40
2022-10-16T08:47:49.749Z,45.60
2022-10-16T08:50:25.116Z,43.20
2022-10-16T08:52:54.061Z,42.20
2022-10-16T08:55:34.560Z,41.40
2022-10-16T08:58:04.359Z,40.20
2022-10-16T09:00:33.005Z,40.90
2022-10-16T09:03:12.708Z,40.40
2022-10-16T09:06:09.978Z,39.80
2022-10-16T09:08:50.573Z,40.00
2022-10-16T09:11:28.897Z,39.70
2022-10-16T09:14:07.011Z,40.00
2022-10-16T09:16:39.058Z,41.10
2022-10-16T09:19:25.566Z,41.30
2022-10-16T09:21:54.247Z,41.30
2022-10-16T09:24:27.194Z,41.60
2022-10-16T09:26:57.834Z,41.30
2022-10-16T09:29:28.016Z,41.00
2022-10-16T09:32:07.716Z,40.60
2022-10-16T09:34:41.407Z,39.70
2022-10-16T09:37:15.714Z,39.50
2022-10-16T09:39:48.447Z,39.40
2022-10-16T09:42:19.336Z,39.60
2022-10-16T09:44:53.127Z,39.70
2022-10-16T09:47:25.301Z,39.70
2022-10-16T09:49:55.197Z,40.10
2022-10-16T09:52:24.650Z,40.40
2022-10-16T09:54:54.858Z,40.90
2022-10-16T09:57:25.098Z,41.40
2022-10-16T09:59:56.947Z,41.70
2022-10-16T10:02:32.987Z,41.90
2022-10-16T10:05:01.667Z,42.10
2022-10-16T10:07:34.206Z,42.40
2022-10-16T10:10:05.039Z,42.70
2022-10-16T10:12:36.777Z,43.30
2022-10-16T10:15:12.660Z,43.80
2022-10-16T10:17:49.477Z,44.00
2022-10-16T10:20:29.678Z,44.20
2022-10-16T10:22:59.109Z,44.20
2022-10-16T10:25:44.768Z,44.00
2022-10-16T10:28:53.335Z,43.90
2022-10-16T10:31:29.358Z,44.40
2022-10-16T10:34:03.417Z,45.30
2022-10-16T10:36:35.790Z,44.50
2022-10-16T10:39:10.793Z,43.90
2022-10-16T10:42:05.067Z,43.40
2022-10-16T10:44:51.119Z,42.60
2022-10-16T10:47:29.237Z,41.60
2022-10-16T10:50:09.177Z,40.50
2022-10-16T10:52:53.199Z,39.90
2022-10-16T10:55:29.188Z,39.00
2022-10-16T10:58:12.548Z,38.30
2022-10-16T11:00:52.400Z,38.20
2022-10-16T11:03:36.880Z,37.60
2022-10-16T11:06:10.429Z,37.30
2022-10-16T11:08:43.320Z,36.70
2022-10-16T11:11:17.528Z,35.90
2022-10-16T11:13:54.326Z,35.20
2022-10-16T11:16:26.469Z,35.30
2022-10-16T11:19:02.161Z,36.10
2022-10-16T11:21:35.763Z,36.80
2022-10-16T11:24:12.656Z,37.30
2022-10-16T11:26:45.239Z,37.70
2022-10-16T11:29:20.232Z,38.40
2022-10-16T11:31:52.398Z,38.80
2022-10-16T11:34:31.767Z,39.10
2022-10-16T11:37:10.931Z,39.50
2022-10-16T11:39:43.317Z,39.70
2022-10-16T11:42:15.792Z,39.60
2022-10-16T11:44:54.011Z,38.70
2022-10-16T11:47:59.874Z,38.60
2022-10-16T11:50:36.798Z,38.10
2022-10-16T11:53:15.889Z,38.20
2022-10-16T11:55:47.443Z,38.40
2022-10-16T11:58:27.471Z,38.60
2022-10-16T12:01:02.561Z,38.70
2022-10-16T12:03:36.613Z,39.10
2022-10-16T12:06:21.371Z,39.50
2022-10-16T12:08:50.277Z,39.80
2022-10-16T12:11:33.698Z,39.90
2022-10-16T12:14:24.737Z,40.10
2022-10-16T12:16:55.759Z,40.50
2022-10-16T12:19:25.839Z,40.60
2022-10-16T12:21:59.727Z,40.80
2022-10-16T12:24:36.437Z,41.10
2022-10-16T12:27:07.049Z,41.50
2022-10-16T12:29:39.816Z,42.00
2022-10-16T12:32:41.944Z,42.30
2022-10-16T12:35:22.229Z,42.40
2022-10-16T12:37:52.995Z,41.60
2022-10-16T12:40:33.279Z,41.50
2022-10-16T12:43:12.889Z,40.40
2022-10-16T12:45:41.518Z,40.40
2022-10-16T12:48:29.231Z,39.70
2022-10-16T12:51:23.888Z,37.10
2022-10-16T12:54:02.438Z,36.70
2022-10-16T12:56:43.129Z,36.10
2022-10-16T12:59:20.238Z,34.90
2022-10-16T13:02:03.220Z,34.60
2022-10-16T13:04:47.775Z,34.50
2022-10-16T13:07:36.069Z,34.20
2022-10-16T13:10:25.737Z,34.30
2022-10-16T13:13:15.877Z,34.10
2022-10-16T13:15:56.449Z,34.60
2022-10-16T13:18:31.758Z,34.80
2022-10-16T13:21:13.668Z,35.40
2022-10-16T13:23:50.336Z,35.20
2022-10-16T13:26:30.800Z,35.30
2022-10-16T13:29:02.667Z,35.00
2022-10-16T13:31:32.428Z,35.20
2022-10-16T13:34:02.506Z,35.30
2022-10-16T13:36:33.128Z,34.90
2022-10-16T13:39:08.676Z,34.60
2022-10-16T13:41:38.535Z,34.20
2022-10-16T13:44:14.068Z,33.60
2022-10-16T13:46:42.520Z,33.90
2022-10-16T13:49:16.356Z,33.90
2022-10-16T13:51:57.176Z,33.50
2022-10-16T13:54:26.530Z,33.40
2022-10-16T13:57:03.464Z,33.30
2022-10-16T13:59:39.980Z,33.50
2022-10-16T14:02:20.810Z,33.50
2022-10-16T14:04:50.087Z,32.90
2022-10-16T14:07:25.315Z,32.90
2022-10-16T14:09:55.699Z,33.00
2022-10-16T14:12:28.154Z,32.80
2022-10-16T14:14:59.502Z,32.50
2022-10-16T14:17:30.248Z,32.70
2022-10-16T14:20:04.115Z,32.60
2022-10-16T14:22:36.131Z,32.60
2022-10-16T14:25:23.799Z,32.90
2022-10-16T14:30:32.249Z,32.90
2022-10-16T14:33:02.498Z,33.00
2022-10-16T14:35:33.400Z,32.90
2022-10-16T14:38:03.518Z,33.00
2022-10-16T14:40:33.775Z,33.00
2022-10-16T14:43:04.788Z,33.30
2022-10-16T14:45:36.416Z,33.30
2022-10-16T14:48:08.471Z,33.30
2022-10-16T14:50:36.917Z,33.50
2022-10-16T14:53:13.262Z,33.70
2022-10-16T14:55:42.831Z,34.00
2022-10-16T14:58:17.406Z,34.30
2022-10-16T15:00:45.950Z,34.50
2022-10-16T15:03:14.652Z,34.80
2022-10-16T15:05:43.427Z,35.00
2022-10-16T15:08:13.425Z,35.10
2022-10-16T15:10:43.759Z,35.20
2022-10-16T15:13:15.807Z,35.50
2022-10-16T15:15:46.132Z,35.90
2022-10-16T15:18:15.888Z,36.60
2022-10-16T15:20:44.362Z,37.00
2022-10-16T15:23:17.171Z,37.30
2022-10-16T15:25:47.718Z,38.10
2022-10-16T15:28:18.712Z,38.60
2022-10-16T15:30:48.148Z,39.10
2022-10-16T15:33:19.250Z,39.60
2022-10-16T15:35:49.931Z,39.90
2022-10-16T15:38:19.467Z,40.30
2022-10-16T15:40:48.486Z,40.50
2022-10-16T15:43:18.777Z,40.90
2022-10-16T15:45:54.428Z,41.30
2022-10-16T15:48:22.850Z,41.60
2022-10-16T15:50:51.260Z,41.90
2022-10-16T15:53:19.698Z,42.30
2022-10-16T15:55:48.117Z,42.70
2022-10-16T15:58:17.988Z,43.50
2022-10-16T16:00:47.039Z,43.20
2022-10-16T16:03:16.020Z,43.50
2022-10-16T16:05:46.727Z,43.90
2022-10-16T16:08:15.500Z,44.30
2022-10-16T16:10:43.917Z,44.60
2022-10-16T16:13:12.689Z,45.10
2022-10-16T16:15:43.537Z,45.50
2022-10-16T16:18:11.986Z,45.70
2022-10-16T16:20:40.375Z,45.90
2022-10-16T16:23:08.936Z,46.20
2022-10-16T16:25:37.401Z,46.50
2022-10-16T16:28:05.881Z,46.90
2022-10-16T16:30:34.349Z,47.20
2022-10-16T16:33:04.531Z,47.20
2022-10-16T16:35:32.936Z,47.30
2022-10-16T16:38:01.496Z,47.60
2022-10-16T16:40:29.897Z,47.90
2022-10-16T16:42:58.277Z,48.20
2022-10-16T16:47:55.186Z,48.70
2022-10-16T16:50:24.986Z,48.70
2022-10-16T16:52:53.428Z,48.80
2022-10-16T16:55:21.870Z,49.00
2022-10-16T16:57:50.639Z,49.20
2022-10-16T17:00:19.348Z,49.30
2022-10-16T17:02:50.887Z,49.50
2022-10-16T17:05:19.822Z,49.60
2022-10-16T17:07:49.539Z,49.60
2022-10-16T17:10:18.108Z,49.80
2022-10-16T17:12:47.232Z,49.90
2022-10-16T17:15:15.877Z,50.20
2022-10-16T17:17:44.338Z,50.20
2022-10-16T17:20:12.997Z,50.10
2022-10-16T17:22:41.664Z,50.40
2022-10-16T17:25:11.708Z,50.50
2022-10-16T17:27:40.140Z,50.50
2022-10-16T17:30:09.366Z,50.50
2022-10-16T17:32:37.856Z,50.60
2022-10-16T17:35:06.939Z,51.00
2022-10-16T17:37:35.407Z,51.40
2022-10-16T17:40:04.126Z,51.20
2022-10-16T17:42:33.888Z,51.50
2022-10-16T17:45:02.467Z,51.50
2022-10-16T17:47:31.037Z,51.50
2022-10-16T17:49:59.719Z,51.60
2022-10-16T17:52:28.625Z,52.00
2022-10-16T17:54:58.487Z,52.20
2022-10-16T17:57:27.023Z,52.30
2022-10-16T17:59:57.396Z,52.50
2022-10-16T18:02:26.214Z,52.80
2022-10-16T18:04:55.856Z,52.80
2022-10-16T18:07:24.576Z,52.80
2022-10-16T18:10:21.357Z,53.00
2022-10-16T18:12:41.810Z,52.90
2022-10-16T18:15:12.957Z,53.00
2022-10-16T18:17:41.433Z,52.80
2022-10-16T18:20:10.927Z,53.80
2022-10-16T18:22:39.425Z,53.90
2022-10-16T18:25:08.682Z,54.20
2022-10-16T18:27:37.109Z,54.50
2022-10-16T18:30:06.127Z,54.40
2022-10-16T18:32:35.967Z,54.70
2022-10-16T18:35:04.593Z,55.20
2022-10-16T18:37:33.279Z,54.90
2022-10-16T18:40:01.836Z,54.90
2022-10-16T18:42:30.298Z,55.30
2022-10-16T18:44:58.851Z,55.40
2022-10-16T18:47:27.677Z,55.10
2022-10-16T18:49:57.716Z,55.10
2022-10-16T18:52:27.110Z,55.90
2022-10-16T18:54:58.560Z,55.30
2022-10-16T18:57:30.986Z,55.20
2022-10-16T18:59:59.574Z,55.30
2022-10-16T19:02:28.026Z,55.30
2022-10-16T19:04:57.908Z,55.30
2022-10-16T19:07:27.499Z,55.30
2022-10-16T19:09:56.196Z,55.40
2022-10-16T19:12:30.890Z,55.50
2022-10-16T19:14:59.407Z,55.60
2022-10-16T19:17:27.857Z,55.70
2022-10-16T19:19:57.786Z,55.60
2022-10-16T19:22:43.425Z,55.70
2022-10-16T19:25:11.947Z,55.70
2022-10-16T19:27:40.359Z,55.80
2022-10-16T19:30:09.916Z,55.80
2022-10-16T19:32:38.397Z,55.90
2022-10-16T19:35:09.566Z,56.00
2022-10-16T19:37:38.317Z,56.10
2022-10-16T19:40:08.047Z,56.10
2022-10-16T19:42:43.168Z,56.30
2022-10-16T19:45:12.736Z,56.20
2022-10-16T19:47:41.268Z,56.30
2022-10-16T19:50:12.597Z,56.40
2022-10-16T19:52:41.077Z,56.50
2022-10-16T19:55:10.006Z,56.50
2022-10-16T19:57:39.457Z,56.60
2022-10-16T20:00:10.018Z,56.70
2022-10-16T20:02:38.574Z,56.70
2022-10-16T20:05:07.848Z,56.90
2022-10-16T20:07:37.875Z,56.90
2022-10-16T20:10:07.307Z,57.00
2022-10-16T20:12:38.111Z,57.00
2022-10-16T20:15:07.298Z,57.10
2022-10-16T20:17:35.725Z,57.20
2022-10-16T20:20:04.780Z,57.30
2022-10-16T20:22:33.287Z,57.30
2022-10-16T20:25:05.963Z,57.20
2022-10-16T20:27:38.307Z,57.20
2022-10-16T20:30:07.471Z,57.10
2022-10-16T20:32:35.887Z,57.20
2022-10-16T20:35:07.185Z,57.10
2022-10-16T20:37:36.498Z,57.30
2022-10-16T20:40:07.438Z,57.30
2022-10-16T20:42:35.837Z,57.50
2022-10-16T20:45:04.628Z,57.50
2022-10-16T20:47:33.035Z,57.70
2022-10-16T20:50:01.599Z,57.70
2022-10-16T20:52:33.578Z,57.90
2022-10-16T20:55:02.118Z,58.00
2022-10-16T20:57:31.969Z,58.20
2022-10-16T21:00:00.497Z,58.50
2022-10-16T21:02:28.928Z,59.00
2022-10-16T21:04:57.518Z,58.80
2022-10-16T21:07:26.399Z,58.70
2022-10-16T21:09:56.887Z,58.70
2022-10-16T21:12:26.487Z,58.90
2022-10-16T21:15:13.896Z,58.90
2022-10-16T21:17:43.655Z,58.90
2022-10-16T21:20:12.290Z,59.10
2022-10-16T21:22:40.750Z,59.60
2022-10-16T21:25:09.891Z,59.50
2022-10-16T21:27:39.132Z,59.90
2022-10-16T21:30:10.986Z,60.00
2022-10-16T21:32:40.025Z,60.30
2022-10-16T21:35:09.937Z,60.50
2022-10-16T21:37:38.349Z,60.80
2022-10-16T21:40:07.927Z,60.60
2022-10-16T21:42:36.368Z,61.00
2022-10-16T21:45:05.147Z,61.40
2022-10-16T21:47:35.499Z,61.60
2022-10-16T21:50:04.052Z,61.80
2022-10-16T21:52:32.798Z,62.10
2022-10-16T21:55:01.361Z,62.40
2022-10-16T21:57:30.132Z,62.10
2022-10-16T21:59:58.839Z,62.40
2022-10-16T22:02:27.358Z,62.40
2022-10-16T22:04:57.275Z,63.00
2022-10-16T22:07:26.123Z,63.50
2022-10-16T22:09:54.821Z,63.30
2022-10-16T22:12:23.277Z,63.40
2022-10-16T22:14:51.816Z,63.30
2022-10-16T22:17:20.247Z,63.60
2022-10-16T22:19:48.937Z,63.60
2022-10-16T22:22:18.608Z,63.60
2022-10-16T22:24:47.257Z,64.10
2022-10-16T22:27:15.768Z,63.90
2022-10-16T22:29:44.206Z,64.10
2022-10-16T22:32:12.646Z,64.60
2022-10-16T22:34:41.186Z,65.30
2022-10-16T22:37:09.553Z,65.80
2022-10-16T22:39:39.546Z,66.30
2022-10-16T22:42:08.118Z,66.20
2022-10-16T22:44:36.776Z,66.10
2022-10-16T22:47:05.198Z,66.20
2022-10-16T22:49:33.700Z,66.20
2022-10-16T22:52:02.181Z,66.20
2022-10-16T22:54:30.768Z,67.00
2022-10-16T22:57:00.516Z,67.00
2022-10-16T22:59:28.997Z,67.00
2022-10-16T23:01:57.477Z,67.40
2022-10-16T23:04:25.932Z,67.40
2022-10-16T23:06:55.182Z,68.80
2022-10-16T23:09:23.857Z,68.40
2022-10-16T23:11:52.604Z,68.40
2022-10-16T23:14:23.310Z,69.20
2022-10-16T23:16:51.877Z,69.40
2022-10-16T23:19:20.337Z,69.90
2022-10-16T23:21:48.798Z,70.10
2022-10-16T23:24:17.421Z,70.30
2022-10-16T23:26:45.830Z,70.70
2022-10-16T23:29:14.468Z,71.60
2022-10-16T23:31:44.299Z,71.50
2022-10-16T23:34:12.830Z,71.20
2022-10-16T23:36:43.123Z,71.40
2022-10-16T23:39:11.595Z,71.00
2022-10-16T23:41:40.157Z,71.50
2022-10-16T23:44:08.697Z,71.70
2022-10-16T23:46:37.116Z,72.40
2022-10-16T23:49:06.950Z,72.20
2022-10-16T23:51:35.368Z,72.70
2022-10-16T23:54:03.807Z,72.90
2022-10-16T23:56:32.236Z,72.90
2022-10-16T23:59:00.817Z,73.00
